createdAt,value
2023-04-09T00:01:08.708Z,17.10
2023-04-09T00:03:37.038Z,18.55
2023-04-09T00:06:05.480Z,16.95
2023-04-09T00:08:33.280Z,18.40
2023-04-09T00:11:01.368Z,18.15
2023-04-09T00:13:38.601Z,17.45
2023-04-09T00:16:09.511Z,15.45
2023-04-09T00:18:37.452Z,17.02
2023-04-09T00:21:05.610Z,16.98
2023-04-09T00:23:33.757Z,18.15
2023-04-09T00:26:01.898Z,16.60
2023-04-09T00:28:29.695Z,18.25
2023-04-09T00:30:57.828Z,15.05
2023-04-09T00:33:27.141Z,16.90
2023-04-09T00:35:54.988Z,16.80
2023-04-09T00:38:22.773Z,14.65
2023-04-09T00:40:51.176Z,18.50
2023-04-09T00:43:19.096Z,16.27
2023-04-09T00:45:46.977Z,18.65
2023-04-09T00:48:16.592Z,16.33
2023-04-09T00:50:45.824Z,15.90
2023-04-09T00:53:14.008Z,16.30
2023-04-09T00:55:42.300Z,16.48
2023-04-09T00:58:10.215Z,17.58
2023-04-09T01:00:38.081Z,16.77
2023-04-09T01:03:07.746Z,19.08
2023-04-09T01:05:45.002Z,14.95
2023-04-09T01:08:22.551Z,17.60
2023-04-09T01:10:59.373Z,18.40
2023-04-09T01:13:35.213Z,18.83
2023-04-09T01:16:04.464Z,17.50
2023-04-09T01:18:36.793Z,16.75
2023-04-09T01:21:10.724Z,17.10
2023-04-09T01:23:47.783Z,16.83
2023-04-09T01:26:23.534Z,18.02
2023-04-09T01:28:55.517Z,21.08
2023-04-09T01:31:31.751Z,19.10
2023-04-09T01:34:00.999Z,18.45
2023-04-09T01:36:32.261Z,20.38
2023-04-09T01:39:02.327Z,19.10
2023-04-09T01:41:33.378Z,19.98
2023-04-09T01:44:04.777Z,18.15
2023-04-09T01:46:34.627Z,18.85
2023-04-09T01:49:03.659Z,19.02
2023-04-09T01:51:33.012Z,18.45
2023-04-09T01:54:01.097Z,17.90
2023-04-09T01:56:28.940Z,16.50
2023-04-09T01:58:56.728Z,18.67
2023-04-09T02:01:34.734Z,17.42
2023-04-09T02:04:05.055Z,17.95
2023-04-09T02:06:39.742Z,18.73
2023-04-09T02:09:10.991Z,18.23
2023-04-09T02:11:41.353Z,18.05
2023-04-09T02:14:11.365Z,19.73
2023-04-09T02:16:42.162Z,18.67
2023-04-09T02:19:09.935Z,18.63
2023-04-09T02:21:37.868Z,19.98
2023-04-09T02:24:05.915Z,19.38
2023-04-09T02:26:33.708Z,19.33
2023-04-09T02:29:01.447Z,20.13
2023-04-09T02:31:29.299Z,20.13
2023-04-09T02:33:58.487Z,19.88
2023-04-09T02:36:27.606Z,19.00
2023-04-09T02:38:55.387Z,20.58
2023-04-09T02:41:24.698Z,18.00
2023-04-09T02:43:52.796Z,20.40
2023-04-09T02:46:20.759Z,20.25
2023-04-09T02:48:48.566Z,18.85
2023-04-09T02:51:17.641Z,20.15
2023-04-09T02:53:45.550Z,18.88
2023-04-09T02:56:13.339Z,20.85
2023-04-09T02:58:41.148Z,20.20
2023-04-09T03:01:08.941Z,20.98
2023-04-09T03:03:37.391Z,20.02
2023-04-09T03:06:05.588Z,19.05
2023-04-09T03:08:34.684Z,19.20
2023-04-09T03:11:02.507Z,19.20
2023-04-09T03:13:30.281Z,18.40
2023-04-09T03:15:58.128Z,16.85
2023-04-09T03:18:26.217Z,17.65
2023-04-09T03:20:54.005Z,16.95
2023-04-09T03:23:21.783Z,17.80
2023-04-09T03:25:50.863Z,18.27
2023-04-09T03:28:18.592Z,20.88
2023-04-09T03:30:46.386Z,17.92
2023-04-09T03:33:14.122Z,18.67
2023-04-09T03:35:43.208Z,17.77
2023-04-09T03:38:11.200Z,17.98
2023-04-09T03:40:38.970Z,17.98
2023-04-09T03:43:08.424Z,18.08
2023-04-09T03:45:36.199Z,17.92
2023-04-09T03:48:03.990Z,18.33
2023-04-09T03:50:31.909Z,17.77
2023-04-09T03:52:59.635Z,18.08
2023-04-09T03:55:28.040Z,18.15
2023-04-09T03:57:56.092Z,18.60
2023-04-09T04:00:25.206Z,16.23
2023-04-09T04:02:53.176Z,17.98
2023-04-09T04:05:23.460Z,17.85
2023-04-09T04:07:51.220Z,17.63
2023-04-09T04:10:19.160Z,17.67
2023-04-09T04:12:47.364Z,16.58
2023-04-09T04:15:15.457Z,17.52
2023-04-09T04:17:44.883Z,16.55
2023-04-09T04:20:13.100Z,15.95
2023-04-09T04:22:40.853Z,15.55
2023-04-09T04:25:09.307Z,16.13
2023-04-09T04:27:37.082Z,16.63
2023-04-09T04:30:06.157Z,18.67
2023-04-09T04:32:33.944Z,18.38
2023-04-09T04:35:03.061Z,20.25
2023-04-09T04:37:30.869Z,19.25
2023-04-09T04:39:58.613Z,17.20
2023-04-09T04:42:26.366Z,15.70
2023-04-09T04:44:54.125Z,17.20
2023-04-09T04:47:21.943Z,17.42
2023-04-09T04:49:49.682Z,16.88
2023-04-09T04:52:18.764Z,15.75
2023-04-09T04:54:46.598Z,17.38
2023-04-09T04:57:14.696Z,22.40
2023-04-09T04:59:42.492Z,18.45
2023-04-09T05:02:10.458Z,17.02
2023-04-09T05:04:38.623Z,17.63
2023-04-09T05:07:07.086Z,16.35
2023-04-09T05:09:36.380Z,16.70
2023-04-09T05:12:04.136Z,15.40
2023-04-09T05:14:31.877Z,15.65
2023-04-09T05:16:59.639Z,16.98
2023-04-09T05:19:27.512Z,16.02
2023-04-09T05:21:55.244Z,13.80
2023-04-09T05:24:22.951Z,15.07
2023-04-09T05:26:52.043Z,14.77
2023-04-09T05:29:19.820Z,14.10
2023-04-09T05:31:47.536Z,15.90
2023-04-09T05:34:15.278Z,16.73
2023-04-09T05:36:43.039Z,14.85
2023-04-09T05:39:10.951Z,14.68
2023-04-09T05:41:38.776Z,14.57
2023-04-09T05:44:08.076Z,17.73
2023-04-09T05:46:35.872Z,17.20
2023-04-09T05:49:03.670Z,15.48
2023-04-09T05:51:31.402Z,13.48
2023-04-09T05:53:59.272Z,15.35
2023-04-09T05:56:27.984Z,12.73
2023-04-09T05:58:56.047Z,16.63
2023-04-09T06:01:25.144Z,15.00
2023-04-09T06:03:55.351Z,16.42
2023-04-09T06:06:24.935Z,16.25
2023-04-09T06:08:52.709Z,15.70
2023-04-09T06:11:21.227Z,15.20
2023-04-09T06:13:48.986Z,16.85
2023-04-09T06:16:16.810Z,14.50
2023-04-09T06:18:49.514Z,16.40
2023-04-09T06:21:17.235Z,14.85
2023-04-09T06:23:45.052Z,15.43
2023-04-09T06:26:12.910Z,14.60
2023-04-09T06:28:40.869Z,13.52
2023-04-09T06:31:08.669Z,13.93
2023-04-09T06:33:36.482Z,12.45
2023-04-09T06:36:06.040Z,12.82
2023-04-09T06:38:33.825Z,15.18
2023-04-09T06:41:01.622Z,15.55
2023-04-09T06:43:29.358Z,15.50
2023-04-09T06:45:57.132Z,13.50
2023-04-09T06:48:24.904Z,14.55
2023-04-09T06:50:52.966Z,17.27
2023-04-09T06:53:22.058Z,15.73
2023-04-09T06:55:49.863Z,14.77
2023-04-09T06:58:17.767Z,14.73
2023-04-09T07:00:45.642Z,15.77
2023-04-09T07:03:13.615Z,14.73
2023-04-09T07:05:41.428Z,13.38
2023-04-09T07:08:09.184Z,13.38
2023-04-09T07:10:38.552Z,16.50
2023-04-09T07:13:06.647Z,16.23
2023-04-09T07:15:34.423Z,15.65
2023-04-09T07:18:02.171Z,13.80
2023-04-09T07:20:30.026Z,15.02
2023-04-09T07:22:57.959Z,13.77
2023-04-09T07:25:26.349Z,13.95
2023-04-09T07:27:55.676Z,14.68
2023-04-09T07:30:23.537Z,15.00
2023-04-09T07:32:51.614Z,14.48
2023-04-09T07:35:19.579Z,16.25
2023-04-09T07:37:47.315Z,14.95
2023-04-09T07:40:15.288Z,15.52
2023-04-09T07:42:43.606Z,13.70
2023-04-09T07:45:12.739Z,16.10
2023-04-09T07:47:41.272Z,15.80
2023-04-09T07:50:10.437Z,17.40
2023-04-09T07:52:38.198Z,16.40
2023-04-09T07:55:06.897Z,25.35
2023-04-09T07:57:34.785Z,25.45
2023-04-09T08:00:03.792Z,24.33
2023-04-09T08:02:33.032Z,21.05
2023-04-09T08:05:00.908Z,23.15
2023-04-09T08:07:28.733Z,22.85
2023-04-09T08:09:56.614Z,24.38
2023-04-09T08:12:24.347Z,33.72
2023-04-09T08:14:52.534Z,37.55
2023-04-09T08:17:20.262Z,37.17
2023-04-09T08:19:49.623Z,42.25
2023-04-09T08:22:17.762Z,43.17
2023-04-09T08:24:45.491Z,42.45
2023-04-09T08:27:13.222Z,44.38
2023-04-09T08:29:42.484Z,44.83
2023-04-09T08:32:10.550Z,48.25
2023-04-09T08:34:38.443Z,44.85
2023-04-09T08:37:07.859Z,44.85
2023-04-09T08:39:36.211Z,47.38
2023-04-09T08:42:06.633Z,45.08
2023-04-09T08:44:34.482Z,45.65
2023-04-09T08:47:02.744Z,47.65
2023-04-09T08:49:30.520Z,46.22
2023-04-09T08:51:58.456Z,43.85
2023-04-09T08:54:27.555Z,47.10
2023-04-09T08:56:57.443Z,44.35
2023-04-09T08:59:26.157Z,48.58
2023-04-09T09:02:08.829Z,47.50
2023-04-09T09:04:46.257Z,48.25
2023-04-09T09:07:14.622Z,48.08
2023-04-09T09:09:54.132Z,46.83
2023-04-09T09:12:39.057Z,44.92
2023-04-09T09:15:25.177Z,44.22
2023-04-09T09:17:55.523Z,41.67
2023-04-09T09:20:24.962Z,46.67
2023-04-09T09:22:55.624Z,45.25
2023-04-09T09:25:26.249Z,43.17
2023-04-09T09:27:55.632Z,44.00
2023-04-09T09:30:25.980Z,48.10
2023-04-09T09:32:54.837Z,46.70
2023-04-09T09:35:23.277Z,47.25
2023-04-09T09:38:02.664Z,43.40
2023-04-09T09:40:31.852Z,45.10
2023-04-09T09:42:59.880Z,49.00
2023-04-09T09:45:28.512Z,49.85
2023-04-09T09:47:56.925Z,44.65
2023-04-09T09:50:26.165Z,48.53
2023-04-09T09:53:06.914Z,49.35
2023-04-09T09:55:40.327Z,48.67
2023-04-09T09:58:13.425Z,46.13
2023-04-09T10:00:41.951Z,48.95
2023-04-09T10:03:15.775Z,49.08
2023-04-09T10:05:43.807Z,45.88
2023-04-09T10:08:12.252Z,46.88
2023-04-09T10:10:42.959Z,47.80
2023-04-09T10:13:14.384Z,47.63
2023-04-09T10:15:43.058Z,47.50
2023-04-09T10:18:10.963Z,47.63
2023-04-09T10:20:44.846Z,51.50
2023-04-09T10:23:22.375Z,48.78
2023-04-09T10:25:51.661Z,47.15
2023-04-09T10:28:19.743Z,46.67
2023-04-09T10:30:48.004Z,50.70
2023-04-09T10:33:19.225Z,49.22
2023-04-09T10:35:48.667Z,47.58
2023-04-09T10:38:16.470Z,51.15
2023-04-09T10:40:49.430Z,48.80
2023-04-09T10:43:20.981Z,49.63
2023-04-09T10:45:53.227Z,51.00
2023-04-09T10:48:21.603Z,49.17
2023-04-09T10:50:52.117Z,48.75
2023-04-09T10:53:24.617Z,50.22
2023-04-09T10:55:53.680Z,49.72
2023-04-09T10:58:22.787Z,49.67
2023-04-09T11:00:52.557Z,49.63
2023-04-09T11:03:23.806Z,52.40
2023-04-09T11:06:01.873Z,49.83
2023-04-09T11:08:31.887Z,51.95
2023-04-09T11:11:01.165Z,46.22
2023-04-09T11:13:32.223Z,48.17
2023-04-09T11:16:01.093Z,48.65
2023-04-09T11:18:31.219Z,47.92
2023-04-09T11:20:59.983Z,49.15
2023-04-09T11:23:28.085Z,49.58
2023-04-09T11:25:56.661Z,49.30
2023-04-09T11:28:25.277Z,52.78
2023-04-09T11:30:54.810Z,50.60
2023-04-09T11:33:22.770Z,47.35
2023-04-09T11:35:51.924Z,49.97
2023-04-09T11:38:19.683Z,47.60
2023-04-09T11:40:49.283Z,49.00
2023-04-09T11:43:18.176Z,48.63
2023-04-09T11:45:48.140Z,47.08
2023-04-09T11:48:19.092Z,47.78
2023-04-09T11:50:47.499Z,48.97
2023-04-09T11:53:19.100Z,47.88
2023-04-09T11:55:50.670Z,52.63
2023-04-09T11:58:18.572Z,46.67
2023-04-09T12:00:46.473Z,50.63
2023-04-09T12:03:15.987Z,48.40
2023-04-09T12:05:51.166Z,46.75
2023-04-09T12:08:24.116Z,45.17
2023-04-09T12:10:53.890Z,48.38
2023-04-09T12:13:22.478Z,45.85
2023-04-09T12:15:51.254Z,41.95
2023-04-09T12:18:19.020Z,48.15
2023-04-09T12:20:49.571Z,47.88
2023-04-09T12:23:18.165Z,44.58
2023-04-09T12:25:47.603Z,46.75
2023-04-09T12:28:18.783Z,48.65
2023-04-09T12:30:48.134Z,48.72
2023-04-09T12:33:15.911Z,44.03
2023-04-09T12:35:43.737Z,45.28
2023-04-09T12:38:12.926Z,44.40
2023-04-09T12:40:41.263Z,44.75
2023-04-09T12:43:08.976Z,47.90
2023-04-09T12:45:36.887Z,48.88
2023-04-09T12:48:04.980Z,44.33
2023-04-09T12:50:33.209Z,42.63
2023-04-09T12:53:01.312Z,43.05
2023-04-09T12:55:30.483Z,42.42
2023-04-09T12:57:58.220Z,43.42
2023-04-09T13:00:25.979Z,46.83
2023-04-09T13:02:55.471Z,43.22
2023-04-09T13:05:23.494Z,45.08
2023-04-09T13:07:51.398Z,39.65
2023-04-09T13:10:19.577Z,39.08
2023-04-09T13:12:48.650Z,40.08
2023-04-09T13:15:16.449Z,38.08
2023-04-09T13:17:44.207Z,41.53
2023-04-09T13:20:12.755Z,42.92
2023-04-09T13:22:40.631Z,45.30
2023-04-09T13:25:08.828Z,38.47
2023-04-09T13:27:36.535Z,42.00
2023-04-09T13:30:06.668Z,40.75
2023-04-09T13:32:34.455Z,39.03
2023-04-09T13:35:02.274Z,39.80
2023-04-09T13:37:29.997Z,40.47
2023-04-09T13:39:57.765Z,41.47
2023-04-09T13:42:25.965Z,38.08
2023-04-09T13:44:53.709Z,37.58
2023-04-09T13:47:23.723Z,38.67
2023-04-09T13:49:51.546Z,38.65
2023-04-09T13:52:19.444Z,39.22
2023-04-09T13:54:47.155Z,36.53
2023-04-09T13:57:14.950Z,40.53
2023-04-09T13:59:43.832Z,39.47
2023-04-09T14:02:12.027Z,39.53
2023-04-09T14:04:41.532Z,40.30
2023-04-09T14:07:09.417Z,39.88
2023-04-09T14:09:37.174Z,39.78
2023-04-09T14:12:05.344Z,38.53
2023-04-09T14:14:33.618Z,36.10
2023-04-09T14:17:01.454Z,40.08
2023-04-09T14:19:29.190Z,36.75
2023-04-09T14:21:58.338Z,36.10
2023-04-09T14:24:26.134Z,36.97
2023-04-09T14:26:53.943Z,35.55
2023-04-09T14:29:22.508Z,32.85
2023-04-09T14:31:50.452Z,34.97
2023-04-09T14:34:18.225Z,39.38
2023-04-09T14:36:45.942Z,35.65
2023-04-09T14:39:15.571Z,34.95
2023-04-09T14:41:43.306Z,36.05
2023-04-09T14:44:11.134Z,35.63
2023-04-09T14:46:38.894Z,36.80
2023-04-09T14:49:06.631Z,38.17
2023-04-09T14:51:34.402Z,37.70
2023-04-09T14:54:02.480Z,35.50
2023-04-09T14:56:32.522Z,34.50
2023-04-09T14:59:00.479Z,35.13
2023-04-09T15:01:28.482Z,35.20
2023-04-09T15:03:56.517Z,33.75
2023-04-09T15:06:24.838Z,34.75
2023-04-09T15:08:52.693Z,31.27
2023-04-09T15:11:22.681Z,33.58
2023-04-09T15:13:52.540Z,36.50
2023-04-09T15:16:26.930Z,33.53
2023-04-09T15:18:57.617Z,36.88
2023-04-09T15:21:25.984Z,33.55
2023-04-09T15:23:54.606Z,31.80
2023-04-09T15:26:22.490Z,31.33
2023-04-09T15:28:53.467Z,31.42
2023-04-09T15:31:21.515Z,33.25
2023-04-09T15:33:50.289Z,31.40
2023-04-09T15:36:18.034Z,28.83
2023-04-09T15:38:45.755Z,31.30
2023-04-09T15:41:13.478Z,32.45
2023-04-09T15:43:41.190Z,30.02
2023-04-09T15:46:11.446Z,31.85
2023-04-09T15:48:39.402Z,33.45
2023-04-09T15:51:07.814Z,31.83
2023-04-09T15:53:35.566Z,32.25
2023-04-09T15:56:03.983Z,32.13
2023-04-09T15:58:32.089Z,32.10
2023-04-09T16:00:59.944Z,32.97
2023-04-09T16:03:29.260Z,31.30
2023-04-09T16:05:57.032Z,32.25
2023-04-09T16:08:26.212Z,34.55
2023-04-09T16:10:53.960Z,31.48
2023-04-09T16:13:22.045Z,34.85
2023-04-09T16:15:50.994Z,31.85
2023-04-09T16:18:18.844Z,33.67
2023-04-09T16:20:48.037Z,30.98
2023-04-09T16:23:15.763Z,32.00
2023-04-09T16:25:43.498Z,33.03
2023-04-09T16:28:11.196Z,30.95
2023-04-09T16:30:38.934Z,31.30
2023-04-09T16:33:08.393Z,32.30
2023-04-09T16:35:39.437Z,31.92
2023-04-09T16:38:09.067Z,30.13
2023-04-09T16:40:37.229Z,32.58
2023-04-09T16:43:04.951Z,30.35
2023-04-09T16:45:32.949Z,33.00
2023-04-09T16:48:00.821Z,31.20
2023-04-09T16:50:28.644Z,31.85
2023-04-09T16:52:56.534Z,31.90
2023-04-09T16:55:25.715Z,33.80
2023-04-09T16:57:55.807Z,34.72
2023-04-09T17:00:23.592Z,32.97
2023-04-09T17:02:51.573Z,34.65
2023-04-09T17:05:19.659Z,36.03
2023-04-09T17:07:47.420Z,32.45
2023-04-09T17:10:15.565Z,33.35
2023-04-09T17:12:45.028Z,34.45
2023-04-09T17:15:12.963Z,33.60
2023-04-09T17:17:41.226Z,34.75
2023-04-09T17:20:09.986Z,41.85
2023-04-09T17:22:39.365Z,41.72
2023-04-09T17:25:10.554Z,33.58
2023-04-09T17:27:38.597Z,32.55
2023-04-09T17:30:09.157Z,35.20
2023-04-09T17:32:37.371Z,30.63
2023-04-09T17:35:07.370Z,31.92
2023-04-09T17:37:35.331Z,31.73
2023-04-09T17:40:03.674Z,30.90
2023-04-09T17:42:35.779Z,29.67
2023-04-09T17:45:04.611Z,28.38
2023-04-09T17:47:33.845Z,28.52
2023-04-09T17:50:04.370Z,26.85
2023-04-09T17:52:36.536Z,28.52
2023-04-09T17:55:07.242Z,26.30
2023-04-09T17:57:35.593Z,24.45
2023-04-09T18:00:05.115Z,24.48
2023-04-09T18:02:35.434Z,26.13
2023-04-09T18:05:04.512Z,25.92
2023-04-09T18:07:34.312Z,24.90
2023-04-09T18:10:02.585Z,25.27
2023-04-09T18:12:30.807Z,25.00
2023-04-09T18:14:58.738Z,25.38
2023-04-09T18:17:27.420Z,24.08
2023-04-09T18:19:58.304Z,23.85
2023-04-09T18:22:26.932Z,25.25
2023-04-09T18:25:00.918Z,24.20
2023-04-09T18:27:33.040Z,26.58
2023-04-09T18:30:03.252Z,25.30
2023-04-09T18:32:32.400Z,24.38
2023-04-09T18:35:01.803Z,23.13
2023-04-09T18:37:31.157Z,23.38
2023-04-09T18:40:01.269Z,24.80
2023-04-09T18:42:30.802Z,24.55
2023-04-09T18:44:58.653Z,25.27
2023-04-09T18:47:26.856Z,24.40
2023-04-09T18:49:54.813Z,23.20
2023-04-09T18:52:24.022Z,23.98
2023-04-09T18:54:51.872Z,24.83
2023-04-09T18:57:20.249Z,22.83
2023-04-09T18:59:48.434Z,23.75
2023-04-09T19:02:16.682Z,23.05
2023-04-09T19:04:45.040Z,22.17
2023-04-09T19:07:12.981Z,24.05
2023-04-09T19:09:44.747Z,24.10
2023-04-09T19:12:12.676Z,21.27
2023-04-09T19:14:41.065Z,21.88
2023-04-09T19:17:08.892Z,22.88
2023-04-09T19:19:37.313Z,23.08
2023-04-09T19:22:05.099Z,24.00
2023-04-09T19:24:34.623Z,23.30
2023-04-09T19:27:09.587Z,24.48
2023-04-09T19:29:37.512Z,22.73
2023-04-09T19:32:05.802Z,23.10
2023-04-09T19:34:33.682Z,23.20
2023-04-09T19:37:10.955Z,23.20
2023-04-09T19:39:42.692Z,23.10
2023-04-09T19:42:11.964Z,24.05
2023-04-09T19:44:39.804Z,22.80
2023-04-09T19:47:07.774Z,24.45
2023-04-09T19:49:35.703Z,22.77
2023-04-09T19:52:06.058Z,25.25
2023-04-09T19:54:34.337Z,24.42
2023-04-09T19:57:02.249Z,24.08
2023-04-09T19:59:36.110Z,27.05
2023-04-09T20:02:04.049Z,24.98
2023-04-09T20:04:31.928Z,25.23
2023-04-09T20:06:59.850Z,24.25
2023-04-09T20:09:28.997Z,26.40
2023-04-09T20:11:58.304Z,25.90
2023-04-09T20:14:27.116Z,23.02
2023-04-09T20:16:56.735Z,22.92
2023-04-09T20:19:24.637Z,23.30
2023-04-09T20:21:52.749Z,22.00
2023-04-09T20:24:22.231Z,24.10
2023-04-09T20:26:50.775Z,24.48
2023-04-09T20:29:19.188Z,23.08
2023-04-09T20:31:47.223Z,24.15
2023-04-09T20:34:16.483Z,21.92
2023-04-09T20:36:44.379Z,22.77
2023-04-09T20:39:12.240Z,23.73
2023-04-09T20:41:40.311Z,22.27
2023-04-09T20:44:08.211Z,20.75
2023-04-09T20:46:36.231Z,21.98
2023-04-09T20:49:04.028Z,20.73
2023-04-09T20:51:33.308Z,21.13
2023-04-09T20:54:01.811Z,21.40
2023-04-09T20:56:30.521Z,22.15
2023-04-09T20:58:58.397Z,20.98
2023-04-09T21:01:27.653Z,19.40
2023-04-09T21:03:55.804Z,20.77
2023-04-09T21:06:23.713Z,19.60
2023-04-09T21:08:54.621Z,18.75
2023-04-09T21:11:22.644Z,19.40
2023-04-09T21:13:54.906Z,21.02
2023-04-09T21:16:24.713Z,21.58
2023-04-09T21:18:53.256Z,18.00
2023-04-09T21:21:21.341Z,18.42
2023-04-09T21:23:49.206Z,19.20
2023-04-09T21:26:18.375Z,20.58
2023-04-09T21:28:50.236Z,20.40
2023-04-09T21:31:18.170Z,20.08
2023-04-09T21:33:46.068Z,19.92
2023-04-09T21:36:14.276Z,20.27
2023-04-09T21:38:42.229Z,21.40
2023-04-09T21:41:10.570Z,21.20
2023-04-09T21:43:40.195Z,21.88
2023-04-09T21:46:08.448Z,21.13
2023-04-09T21:48:37.529Z,23.48
2023-04-09T21:51:10.388Z,20.70
2023-04-09T21:53:38.372Z,20.88
2023-04-09T21:56:07.077Z,19.20
2023-04-09T21:58:34.927Z,20.27
2023-04-09T22:01:04.170Z,21.23
2023-04-09T22:03:32.627Z,19.33
2023-04-09T22:06:00.630Z,20.50
2023-04-09T22:08:29.628Z,20.52
2023-04-09T22:10:57.479Z,20.95
2023-04-09T22:13:25.501Z,20.50
2023-04-09T22:15:53.335Z,20.42
2023-04-09T22:18:22.551Z,21.52
2023-04-09T22:20:50.425Z,22.05
2023-04-09T22:23:18.283Z,20.17
2023-04-09T22:25:46.463Z,21.08
2023-04-09T22:28:14.364Z,19.90
2023-04-09T22:30:42.532Z,20.13
2023-04-09T22:33:10.585Z,20.92
2023-04-09T22:35:39.865Z,20.77
2023-04-09T22:38:07.734Z,19.98
2023-04-09T22:40:35.576Z,20.48
2023-04-09T22:43:03.415Z,22.00
2023-04-09T22:45:32.150Z,19.95
2023-04-09T22:48:00.014Z,20.10
2023-04-09T22:50:28.808Z,20.45
2023-04-09T22:52:57.970Z,19.88
2023-04-09T22:55:26.279Z,21.27
2023-04-09T22:57:54.946Z,19.42
2023-04-09T23:00:23.250Z,21.02
2023-04-09T23:02:51.458Z,20.48
2023-04-09T23:05:19.381Z,20.10
2023-04-09T23:07:48.014Z,19.80
2023-04-09T23:10:17.534Z,20.10
2023-04-09T23:12:45.548Z,21.48
2023-04-09T23:15:13.369Z,19.10
2023-04-09T23:17:41.792Z,19.58
2023-04-09T23:20:12.853Z,20.20
2023-04-09T23:22:40.733Z,18.75
2023-04-09T23:25:09.153Z,19.25
2023-04-09T23:27:38.358Z,20.52
2023-04-09T23:30:07.476Z,19.27
2023-04-09T23:32:35.651Z,19.85
2023-04-09T23:35:03.574Z,19.27
2023-04-09T23:37:31.533Z,19.52
2023-04-09T23:39:59.349Z,20.45
2023-04-09T23:42:32.619Z,20.17
2023-04-09T23:45:03.928Z,18.08
2023-04-09T23:47:33.370Z,21.08
2023-04-09T23:50:04.614Z,20.40
2023-04-09T23:52:32.788Z,17.85
2023-04-09T23:55:00.822Z,20.65
2023-04-09T23:57:28.908Z,18.45
2023-04-09T23:59:56.982Z,19.52
